sensor_id;sensor_type;location;lat;lon;timestamp;temperature;humidity
42201;DHT22;27869;51.442;7.540;2023-02-04T00:02:09;6.70;99.90
42201;DHT22;27869;51.442;7.540;2023-02-04T00:04:36;6.60;99.90
42201;DHT22;27869;51.442;7.540;2023-02-04T00:07:03;6.60;99.90
42201;DHT22;27869;51.442;7.540;2023-02-04T00:09:30;6.60;99.90
42201;DHT22;27869;51.442;7.540;2023-02-04T00:11:58;6.60;99.90
42201;DHT22;27869;51.442;7.540;2023-02-04T00:14:25;6.60;99.90
42201;DHT22;27869;51.442;7.540;2023-02-04T00:16:52;6.50;99.90
42201;DHT22;27869;51.442;7.540;2023-02-04T00:19:18;6.50;99.90
42201;DHT22;27869;51.442;7.540;2023-02-04T00:21:45;6.50;99.90
42201;DHT22;27869;51.442;7.540;2023-02-04T00:24:12;6.50;99.90
42201;DHT22;27869;51.442;7.540;2023-02-04T00:26:39;6.50;99.90
42201;DHT22;27869;51.442;7.540;2023-02-04T00:29:07;6.50;99.90
42201;DHT22;27869;51.442;7.540;2023-02-04T00:31:34;6.50;99.90
42201;DHT22;27869;51.442;7.540;2023-02-04T00:34:01;6.50;99.90
42201;DHT22;27869;51.442;7.540;2023-02-04T00:36:28;6.50;99.90
42201;DHT22;27869;51.442;7.540;2023-02-04T00:38:54;6.50;99.90
42201;DHT22;27869;51.442;7.540;2023-02-04T00:41:21;6.40;99.90
42201;DHT22;27869;51.442;7.540;2023-02-04T00:43:48;6.40;99.90
42201;DHT22;27869;51.442;7.540;2023-02-04T00:46:16;6.40;99.90
42201;DHT22;27869;51.442;7.540;2023-02-04T00:48:43;6.50;99.90
42201;DHT22;27869;51.442;7.540;2023-02-04T00:51:10;6.50;99.90
42201;DHT22;27869;51.442;7.540;2023-02-04T00:53:37;6.50;99.90
42201;DHT22;27869;51.442;7.540;2023-02-04T00:56:04;6.40;99.90
42201;DHT22;27869;51.442;7.540;2023-02-04T00:58:31;6.40;99.90
42201;DHT22;27869;51.442;7.540;2023-02-04T01:00:58;6.40;99.90
42201;DHT22;27869;51.442;7.540;2023-02-04T01:03:26;6.40;99.90
42201;DHT22;27869;51.442;7.540;2023-02-04T01:05:53;6.40;99.90
42201;DHT22;27869;51.442;7.540;2023-02-04T01:08:20;6.30;99.90
42201;DHT22;27869;51.442;7.540;2023-02-04T01:10:47;6.30;99.90
42201;DHT22;27869;51.442;7.540;2023-02-04T01:13:14;6.30;99.90
42201;DHT22;27869;51.442;7.540;2023-02-04T01:15:41;6.40;99.90
42201;DHT22;27869;51.442;7.540;2023-02-04T01:18:07;6.30;99.90
42201;DHT22;27869;51.442;7.540;2023-02-04T01:20:36;6.40;99.90
42201;DHT22;27869;51.442;7.540;2023-02-04T01:23:03;6.40;99.90
42201;DHT22;27869;51.442;7.540;2023-02-04T01:25:30;6.40;99.90
42201;DHT22;27869;51.442;7.540;2023-02-04T01:27:56;6.30;99.90
42201;DHT22;27869;51.442;7.540;2023-02-04T01:30:23;6.30;99.90
42201;DHT22;27869;51.442;7.540;2023-02-04T01:32:50;6.30;99.90
42201;DHT22;27869;51.442;7.540;2023-02-04T01:35:17;6.30;99.90
42201;DHT22;27869;51.442;7.540;2023-02-04T01:37:45;6.30;99.90
42201;DHT22;27869;51.442;7.540;2023-02-04T01:40:12;6.30;99.90
42201;DHT22;27869;51.442;7.540;2023-02-04T01:42:39;6.30;99.90
42201;DHT22;27869;51.442;7.540;2023-02-04T01:45:07;6.30;99.90
42201;DHT22;27869;51.442;7.540;2023-02-04T01:47:34;6.30;99.90
42201;DHT22;27869;51.442;7.540;2023-02-04T01:50:01;6.30;99.90
42201;DHT22;27869;51.442;7.540;2023-02-04T01:52:31;6.30;99.90
42201;DHT22;27869;51.442;7.540;2023-02-04T01:55:01;6.30;99.90
42201;DHT22;27869;51.442;7.540;2023-02-04T01:57:28;6.30;99.90
42201;DHT22;27869;51.442;7.540;2023-02-04T01:59:55;6.30;99.90
42201;DHT22;27869;51.442;7.540;2023-02-04T02:02:40;6.30;99.90
42201;DHT22;27869;51.442;7.540;2023-02-04T02:05:08;6.30;99.90
42201;DHT22;27869;51.442;7.540;2023-02-04T02:07:36;6.30;99.90
42201;DHT22;27869;51.442;7.540;2023-02-04T02:10:05;6.30;99.90
42201;DHT22;27869;51.442;7.540;2023-02-04T02:12:32;6.30;99.90
42201;DHT22;27869;51.442;7.540;2023-02-04T02:14:59;6.30;99.90
42201;DHT22;27869;51.442;7.540;2023-02-04T02:17:26;6.30;99.90
42201;DHT22;27869;51.442;7.540;2023-02-04T02:19:53;6.30;99.90
42201;DHT22;27869;51.442;7.540;2023-02-04T02:22:24;6.40;99.90
42201;DHT22;27869;51.442;7.540;2023-02-04T02:24:55;6.30;99.90
42201;DHT22;27869;51.442;7.540;2023-02-04T02:27:22;6.30;99.90
42201;DHT22;27869;51.442;7.540;2023-02-04T02:29:49;6.30;99.90
42201;DHT22;27869;51.442;7.540;2023-02-04T02:32:17;6.30;99.90
42201;DHT22;27869;51.442;7.540;2023-02-04T02:34:44;6.30;99.90
42201;DHT22;27869;51.442;7.540;2023-02-04T02:37:12;6.30;99.90
42201;DHT22;27869;51.442;7.540;2023-02-04T02:39:40;6.30;99.90
42201;DHT22;27869;51.442;7.540;2023-02-04T02:42:11;6.30;99.90
42201;DHT22;27869;51.442;7.540;2023-02-04T02:44:40;6.30;99.90
42201;DHT22;27869;51.442;7.540;2023-02-04T02:47:11;6.40;99.90
42201;DHT22;27869;51.442;7.540;2023-02-04T02:49:40;6.30;99.90
42201;DHT22;27869;51.442;7.540;2023-02-04T02:52:10;6.30;99.90
42201;DHT22;27869;51.442;7.540;2023-02-04T02:54:38;6.30;99.90
42201;DHT22;27869;51.442;7.540;2023-02-04T02:57:12;6.30;99.90
42201;DHT22;27869;51.442;7.540;2023-02-04T02:59:39;6.30;99.90
42201;DHT22;27869;51.442;7.540;2023-02-04T03:02:07;6.30;99.90
42201;DHT22;27869;51.442;7.540;2023-02-04T03:04:39;6.30;99.90
42201;DHT22;27869;51.442;7.540;2023-02-04T03:07:07;6.30;99.90
42201;DHT22;27869;51.442;7.540;2023-02-04T03:09:35;6.30;99.90
42201;DHT22;27869;51.442;7.540;2023-02-04T03:12:02;6.30;99.90
42201;DHT22;27869;51.442;7.540;2023-02-04T03:14:32;6.30;99.90
42201;DHT22;27869;51.442;7.540;2023-02-04T03:17:01;6.30;99.90
42201;DHT22;27869;51.442;7.540;2023-02-04T03:19:30;6.30;99.90
42201;DHT22;27869;51.442;7.540;2023-02-04T03:21:58;6.30;99.90
42201;DHT22;27869;51.442;7.540;2023-02-04T03:24:25;6.30;99.90
42201;DHT22;27869;51.442;7.540;2023-02-04T03:26:52;6.30;99.90
42201;DHT22;27869;51.442;7.540;2023-02-04T03:29:19;6.30;99.90
42201;DHT22;27869;51.442;7.540;2023-02-04T03:31:47;6.30;99.90
42201;DHT22;27869;51.442;7.540;2023-02-04T03:34:14;6.30;99.90
42201;DHT22;27869;51.442;7.540;2023-02-04T03:36:41;6.30;99.90
42201;DHT22;27869;51.442;7.540;2023-02-04T03:39:08;6.30;99.90
42201;DHT22;27869;51.442;7.540;2023-02-04T03:41:35;6.30;99.90
42201;DHT22;27869;51.442;7.540;2023-02-04T03:44:02;6.30;99.90
42201;DHT22;27869;51.442;7.540;2023-02-04T03:46:29;6.30;99.90
42201;DHT22;27869;51.442;7.540;2023-02-04T03:48:57;6.30;99.90
42201;DHT22;27869;51.442;7.540;2023-02-04T03:51:24;6.30;99.90
42201;DHT22;27869;51.442;7.540;2023-02-04T03:53:51;6.30;99.90
42201;DHT22;27869;51.442;7.540;2023-02-04T03:56:18;6.30;99.90
42201;DHT22;27869;51.442;7.540;2023-02-04T03:58:44;6.30;99.90
42201;DHT22;27869;51.442;7.540;2023-02-04T04:01:11;6.30;99.90
42201;DHT22;27869;51.442;7.540;2023-02-04T04:03:38;6.30;99.90
42201;DHT22;27869;51.442;7.540;2023-02-04T04:06:06;6.30;99.90
42201;DHT22;27869;51.442;7.540;2023-02-04T04:08:35;6.30;99.90
42201;DHT22;27869;51.442;7.540;2023-02-04T04:11:02;6.30;99.90
42201;DHT22;27869;51.442;7.540;2023-02-04T04:13:29;6.30;99.90
42201;DHT22;27869;51.442;7.540;2023-02-04T04:15:56;6.30;99.90
42201;DHT22;27869;51.442;7.540;2023-02-04T04:18:23;6.30;99.90
42201;DHT22;27869;51.442;7.540;2023-02-04T04:20:49;6.30;99.90
42201;DHT22;27869;51.442;7.540;2023-02-04T04:23:18;6.20;99.90
42201;DHT22;27869;51.442;7.540;2023-02-04T04:25:44;6.30;99.90
42201;DHT22;27869;51.442;7.540;2023-02-04T04:28:11;6.30;99.90
42201;DHT22;27869;51.442;7.540;2023-02-04T04:30:38;6.20;99.90
42201;DHT22;27869;51.442;7.540;2023-02-04T04:33:05;6.30;99.90
42201;DHT22;27869;51.442;7.540;2023-02-04T04:35:32;6.30;99.90
42201;DHT22;27869;51.442;7.540;2023-02-04T04:37:59;6.20;99.90
42201;DHT22;27869;51.442;7.540;2023-02-04T04:40:27;6.20;99.90
42201;DHT22;27869;51.442;7.540;2023-02-04T04:42:54;6.30;99.90
42201;DHT22;27869;51.442;7.540;2023-02-04T04:45:21;6.30;99.90
42201;DHT22;27869;51.442;7.540;2023-02-04T04:47:48;6.30;99.90
42201;DHT22;27869;51.442;7.540;2023-02-04T04:50:15;6.20;99.90
42201;DHT22;27869;51.442;7.540;2023-02-04T04:52:42;6.30;99.90
42201;DHT22;27869;51.442;7.540;2023-02-04T04:55:09;6.20;99.90
42201;DHT22;27869;51.442;7.540;2023-02-04T04:57:38;6.20;99.90
42201;DHT22;27869;51.442;7.540;2023-02-04T05:00:06;6.20;99.90
42201;DHT22;27869;51.442;7.540;2023-02-04T05:02:33;6.20;99.90
42201;DHT22;27869;51.442;7.540;2023-02-04T05:05:00;6.20;99.90
42201;DHT22;27869;51.442;7.540;2023-02-04T05:07:27;6.20;99.90
42201;DHT22;27869;51.442;7.540;2023-02-04T05:09:54;6.20;99.90
42201;DHT22;27869;51.442;7.540;2023-02-04T05:12:21;6.20;99.90
42201;DHT22;27869;51.442;7.540;2023-02-04T05:14:49;6.20;99.90
42201;DHT22;27869;51.442;7.540;2023-02-04T05:17:16;6.20;99.90
42201;DHT22;27869;51.442;7.540;2023-02-04T05:19:43;6.20;99.90
42201;DHT22;27869;51.442;7.540;2023-02-04T05:22:09;6.20;99.90
42201;DHT22;27869;51.442;7.540;2023-02-04T05:24:36;6.20;99.90
42201;DHT22;27869;51.442;7.540;2023-02-04T05:27:03;6.20;99.90
42201;DHT22;27869;51.442;7.540;2023-02-04T05:29:30;6.20;99.90
42201;DHT22;27869;51.442;7.540;2023-02-04T05:31:58;6.20;99.90
42201;DHT22;27869;51.442;7.540;2023-02-04T05:34:25;6.20;99.90
42201;DHT22;27869;51.442;7.540;2023-02-04T05:36:52;6.20;99.90
42201;DHT22;27869;51.442;7.540;2023-02-04T05:39:19;6.20;99.90
42201;DHT22;27869;51.442;7.540;2023-02-04T05:41:45;6.20;99.90
42201;DHT22;27869;51.442;7.540;2023-02-04T05:44:12;6.20;99.90
42201;DHT22;27869;51.442;7.540;2023-02-04T05:46:39;6.20;99.90
42201;DHT22;27869;51.442;7.540;2023-02-04T05:49:07;6.20;99.90
42201;DHT22;27869;51.442;7.540;2023-02-04T05:51:35;6.20;99.90
42201;DHT22;27869;51.442;7.540;2023-02-04T05:54:01;6.20;99.90
42201;DHT22;27869;51.442;7.540;2023-02-04T05:56:28;6.20;99.90
42201;DHT22;27869;51.442;7.540;2023-02-04T05:58:55;6.20;99.90
42201;DHT22;27869;51.442;7.540;2023-02-04T06:01:22;6.20;99.90
42201;DHT22;27869;51.442;7.540;2023-02-04T06:03:49;6.20;99.90
42201;DHT22;27869;51.442;7.540;2023-02-04T06:06:17;6.20;99.90
42201;DHT22;27869;51.442;7.540;2023-02-04T06:08:44;6.20;99.90
42201;DHT22;27869;51.442;7.540;2023-02-04T06:11:11;6.20;99.90
42201;DHT22;27869;51.442;7.540;2023-02-04T06:13:38;6.20;99.90
42201;DHT22;27869;51.442;7.540;2023-02-04T06:16:05;6.20;99.90
42201;DHT22;27869;51.442;7.540;2023-02-04T06:18:32;6.20;99.90
42201;DHT22;27869;51.442;7.540;2023-02-04T06:20:59;6.20;99.90
42201;DHT22;27869;51.442;7.540;2023-02-04T06:23:30;6.20;99.90
42201;DHT22;27869;51.442;7.540;2023-02-04T06:25:58;6.30;99.90
42201;DHT22;27869;51.442;7.540;2023-02-04T06:28:25;6.20;99.90
42201;DHT22;27869;51.442;7.540;2023-02-04T06:30:52;6.30;99.90
42201;DHT22;27869;51.442;7.540;2023-02-04T06:33:19;6.20;99.90
42201;DHT22;27869;51.442;7.540;2023-02-04T06:35:48;6.20;99.90
42201;DHT22;27869;51.442;7.540;2023-02-04T06:38:15;6.20;99.90
42201;DHT22;27869;51.442;7.540;2023-02-04T06:40:44;6.20;99.90
42201;DHT22;27869;51.442;7.540;2023-02-04T06:43:13;6.20;99.90
42201;DHT22;27869;51.442;7.540;2023-02-04T06:45:40;6.20;99.90
42201;DHT22;27869;51.442;7.540;2023-02-04T06:48:07;6.20;99.90
42201;DHT22;27869;51.442;7.540;2023-02-04T06:50:34;6.20;99.90
42201;DHT22;27869;51.442;7.540;2023-02-04T06:53:01;6.20;99.90
42201;DHT22;27869;51.442;7.540;2023-02-04T06:55:28;6.30;99.90
42201;DHT22;27869;51.442;7.540;2023-02-04T06:57:56;6.30;99.90
42201;DHT22;27869;51.442;7.540;2023-02-04T07:00:23;6.20;99.90
42201;DHT22;27869;51.442;7.540;2023-02-04T07:02:50;6.30;99.90
42201;DHT22;27869;51.442;7.540;2023-02-04T07:05:17;6.30;99.90
42201;DHT22;27869;51.442;7.540;2023-02-04T07:07:44;6.30;99.90
42201;DHT22;27869;51.442;7.540;2023-02-04T07:10:11;6.30;99.90
42201;DHT22;27869;51.442;7.540;2023-02-04T07:12:38;6.30;99.90
42201;DHT22;27869;51.442;7.540;2023-02-04T07:15:07;6.30;99.90
42201;DHT22;27869;51.442;7.540;2023-02-04T07:17:34;6.30;99.90
42201;DHT22;27869;51.442;7.540;2023-02-04T07:20:00;6.30;99.90
42201;DHT22;27869;51.442;7.540;2023-02-04T07:22:27;6.30;99.90
42201;DHT22;27869;51.442;7.540;2023-02-04T07:24:54;6.30;99.90
42201;DHT22;27869;51.442;7.540;2023-02-04T07:27:21;6.30;99.90
42201;DHT22;27869;51.442;7.540;2023-02-04T07:29:48;6.30;99.90
42201;DHT22;27869;51.442;7.540;2023-02-04T07:32:16;6.30;99.90
42201;DHT22;27869;51.442;7.540;2023-02-04T07:34:43;6.30;99.90
42201;DHT22;27869;51.442;7.540;2023-02-04T07:37:10;6.30;99.90
42201;DHT22;27869;51.442;7.540;2023-02-04T07:39:37;6.30;99.90
42201;DHT22;27869;51.442;7.540;2023-02-04T07:42:03;6.30;99.90
42201;DHT22;27869;51.442;7.540;2023-02-04T07:44:30;6.30;99.90
42201;DHT22;27869;51.442;7.540;2023-02-04T07:46:57;6.30;99.90
42201;DHT22;27869;51.442;7.540;2023-02-04T07:49:26;6.30;99.90
42201;DHT22;27869;51.442;7.540;2023-02-04T07:51:53;6.40;99.90
42201;DHT22;27869;51.442;7.540;2023-02-04T07:54:22;6.40;99.90
42201;DHT22;27869;51.442;7.540;2023-02-04T07:56:49;6.40;99.90
42201;DHT22;27869;51.442;7.540;2023-02-04T07:59:16;6.40;99.90
42201;DHT22;27869;51.442;7.540;2023-02-04T08:01:42;6.40;99.90
42201;DHT22;27869;51.442;7.540;2023-02-04T08:04:09;6.40;99.90
42201;DHT22;27869;51.442;7.540;2023-02-04T08:06:38;6.40;99.90
42201;DHT22;27869;51.442;7.540;2023-02-04T08:09:05;6.40;99.90
42201;DHT22;27869;51.442;7.540;2023-02-04T08:11:32;6.40;99.90
42201;DHT22;27869;51.442;7.540;2023-02-04T08:13:59;6.50;99.90
42201;DHT22;27869;51.442;7.540;2023-02-04T08:16:25;6.50;99.90
42201;DHT22;27869;51.442;7.540;2023-02-04T08:18:52;6.50;99.90
42201;DHT22;27869;51.442;7.540;2023-02-04T08:21:19;6.60;99.90
42201;DHT22;27869;51.442;7.540;2023-02-04T08:23:47;6.60;99.90
42201;DHT22;27869;51.442;7.540;2023-02-04T08:26:14;6.60;99.90
42201;DHT22;27869;51.442;7.540;2023-02-04T08:28:41;6.60;99.90
42201;DHT22;27869;51.442;7.540;2023-02-04T08:31:08;6.60;99.90
42201;DHT22;27869;51.442;7.540;2023-02-04T08:33:36;6.60;99.90
42201;DHT22;27869;51.442;7.540;2023-02-04T08:36:05;6.60;99.90
42201;DHT22;27869;51.442;7.540;2023-02-04T08:38:32;6.70;99.90
42201;DHT22;27869;51.442;7.540;2023-02-04T08:41:00;6.70;99.90
42201;DHT22;27869;51.442;7.540;2023-02-04T08:43:27;6.70;99.90
42201;DHT22;27869;51.442;7.540;2023-02-04T08:45:54;6.70;99.90
42201;DHT22;27869;51.442;7.540;2023-02-04T08:48:21;6.70;99.90
42201;DHT22;27869;51.442;7.540;2023-02-04T08:50:48;6.70;99.90
42201;DHT22;27869;51.442;7.540;2023-02-04T08:53:15;6.70;99.90
42201;DHT22;27869;51.442;7.540;2023-02-04T08:55:45;6.70;99.90
42201;DHT22;27869;51.442;7.540;2023-02-04T08:58:14;6.80;99.90
42201;DHT22;27869;51.442;7.540;2023-02-04T09:00:41;6.80;99.90
42201;DHT22;27869;51.442;7.540;2023-02-04T09:03:08;6.80;99.90
42201;DHT22;27869;51.442;7.540;2023-02-04T09:05:35;6.80;99.90
42201;DHT22;27869;51.442;7.540;2023-02-04T09:08:02;6.90;99.90
42201;DHT22;27869;51.442;7.540;2023-02-04T09:10:28;6.90;99.90
42201;DHT22;27869;51.442;7.540;2023-02-04T09:12:55;6.90;99.90
42201;DHT22;27869;51.442;7.540;2023-02-04T09:15:24;6.90;99.90
42201;DHT22;27869;51.442;7.540;2023-02-04T09:17:51;6.90;99.90
42201;DHT22;27869;51.442;7.540;2023-02-04T09:20:25;6.90;99.90
42201;DHT22;27869;51.442;7.540;2023-02-04T09:22:53;7.00;99.90
42201;DHT22;27869;51.442;7.540;2023-02-04T09:25:20;7.00;99.90
42201;DHT22;27869;51.442;7.540;2023-02-04T09:27:47;7.00;99.90
42201;DHT22;27869;51.442;7.540;2023-02-04T09:30:14;7.00;99.90
42201;DHT22;27869;51.442;7.540;2023-02-04T09:32:42;7.00;99.90
42201;DHT22;27869;51.442;7.540;2023-02-04T09:35:10;7.10;99.90
42201;DHT22;27869;51.442;7.540;2023-02-04T09:37:37;7.10;99.90
42201;DHT22;27869;51.442;7.540;2023-02-04T09:40:04;7.10;99.90
42201;DHT22;27869;51.442;7.540;2023-02-04T09:42:31;7.10;99.90
42201;DHT22;27869;51.442;7.540;2023-02-04T09:44:58;7.10;99.90
42201;DHT22;27869;51.442;7.540;2023-02-04T09:47:28;7.20;99.90
42201;DHT22;27869;51.442;7.540;2023-02-04T09:49:56;7.20;99.90
42201;DHT22;27869;51.442;7.540;2023-02-04T09:52:24;7.20;99.90
42201;DHT22;27869;51.442;7.540;2023-02-04T09:54:53;7.20;99.90
42201;DHT22;27869;51.442;7.540;2023-02-04T09:57:20;7.30;99.90
42201;DHT22;27869;51.442;7.540;2023-02-04T09:59:46;7.30;99.90
42201;DHT22;27869;51.442;7.540;2023-02-04T10:02:22;7.30;99.90
42201;DHT22;27869;51.442;7.540;2023-02-04T10:04:51;7.40;99.90
42201;DHT22;27869;51.442;7.540;2023-02-04T10:07:21;7.40;99.90
42201;DHT22;27869;51.442;7.540;2023-02-04T10:09:51;7.40;99.90
42201;DHT22;27869;51.442;7.540;2023-02-04T10:12:19;7.40;99.90
42201;DHT22;27869;51.442;7.540;2023-02-04T10:14:46;7.50;99.90
42201;DHT22;27869;51.442;7.540;2023-02-04T10:17:18;7.50;99.90
42201;DHT22;27869;51.442;7.540;2023-02-04T10:19:46;7.50;99.90
42201;DHT22;27869;51.442;7.540;2023-02-04T10:22:16;7.60;99.90
42201;DHT22;27869;51.442;7.540;2023-02-04T10:24:45;7.60;99.90
42201;DHT22;27869;51.442;7.540;2023-02-04T10:27:13;7.70;99.90
42201;DHT22;27869;51.442;7.540;2023-02-04T10:29:42;7.70;99.90
42201;DHT22;27869;51.442;7.540;2023-02-04T10:32:28;7.80;99.90
42201;DHT22;27869;51.442;7.540;2023-02-04T10:34:59;7.80;99.90
42201;DHT22;27869;51.442;7.540;2023-02-04T10:37:26;7.90;99.90
42201;DHT22;27869;51.442;7.540;2023-02-04T10:39:56;7.90;99.90
42201;DHT22;27869;51.442;7.540;2023-02-04T10:42:24;7.90;99.90
42201;DHT22;27869;51.442;7.540;2023-02-04T10:44:52;7.80;99.90
42201;DHT22;27869;51.442;7.540;2023-02-04T10:47:21;7.80;99.90
42201;DHT22;27869;51.442;7.540;2023-02-04T10:49:53;7.90;99.90
42201;DHT22;27869;51.442;7.540;2023-02-04T10:52:22;7.90;99.90
42201;DHT22;27869;51.442;7.540;2023-02-04T10:54:50;8.00;99.90
42201;DHT22;27869;51.442;7.540;2023-02-04T10:57:20;8.00;99.90
42201;DHT22;27869;51.442;7.540;2023-02-04T10:59:49;8.00;99.90
42201;DHT22;27869;51.442;7.540;2023-02-04T11:02:36;8.00;99.90
42201;DHT22;27869;51.442;7.540;2023-02-04T11:05:10;8.00;99.90
42201;DHT22;27869;51.442;7.540;2023-02-04T11:07:37;8.10;99.90
42201;DHT22;27869;51.442;7.540;2023-02-04T11:10:05;8.10;99.90
42201;DHT22;27869;51.442;7.540;2023-02-04T11:12:39;8.10;99.90
42201;DHT22;27869;51.442;7.540;2023-02-04T11:15:37;8.20;99.90
42201;DHT22;27869;51.442;7.540;2023-02-04T11:18:06;8.20;99.90
42201;DHT22;27869;51.442;7.540;2023-02-04T11:20:34;8.30;99.90
42201;DHT22;27869;51.442;7.540;2023-02-04T11:23:15;8.30;99.90
42201;DHT22;27869;51.442;7.540;2023-02-04T11:25:42;8.30;99.90
42201;DHT22;27869;51.442;7.540;2023-02-04T11:28:24;8.30;99.90
42201;DHT22;27869;51.442;7.540;2023-02-04T11:30:58;8.30;99.90
42201;DHT22;27869;51.442;7.540;2023-02-04T11:33:36;8.30;99.90
42201;DHT22;27869;51.442;7.540;2023-02-04T11:36:06;8.30;99.90
42201;DHT22;27869;51.442;7.540;2023-02-04T11:38:34;8.30;99.90
42201;DHT22;27869;51.442;7.540;2023-02-04T11:41:01;8.40;99.90
42201;DHT22;27869;51.442;7.540;2023-02-04T11:43:32;8.40;99.90
42201;DHT22;27869;51.442;7.540;2023-02-04T11:46:02;8.50;99.90
42201;DHT22;27869;51.442;7.540;2023-02-04T11:48:31;8.50;99.90
42201;DHT22;27869;51.442;7.540;2023-02-04T11:50:59;8.50;99.90
42201;DHT22;27869;51.442;7.540;2023-02-04T11:53:28;8.50;99.90
42201;DHT22;27869;51.442;7.540;2023-02-04T11:55:55;8.50;99.90
42201;DHT22;27869;51.442;7.540;2023-02-04T11:58:22;8.50;99.90
42201;DHT22;27869;51.442;7.540;2023-02-04T12:00:52;8.60;99.90
42201;DHT22;27869;51.442;7.540;2023-02-04T12:03:22;8.50;99.90
42201;DHT22;27869;51.442;7.540;2023-02-04T12:05:50;8.50;99.90
42201;DHT22;27869;51.442;7.540;2023-02-04T12:08:30;8.60;99.90
42201;DHT22;27869;51.442;7.540;2023-02-04T12:11:03;8.50;99.90
42201;DHT22;27869;51.442;7.540;2023-02-04T12:13:32;8.60;99.90
42201;DHT22;27869;51.442;7.540;2023-02-04T12:16:02;8.60;99.90
42201;DHT22;27869;51.442;7.540;2023-02-04T12:18:31;8.60;99.90
42201;DHT22;27869;51.442;7.540;2023-02-04T12:20:58;8.60;99.90
42201;DHT22;27869;51.442;7.540;2023-02-04T12:23:27;8.60;99.90
42201;DHT22;27869;51.442;7.540;2023-02-04T12:25:54;8.60;99.90
42201;DHT22;27869;51.442;7.540;2023-02-04T12:28:22;8.60;99.90
42201;DHT22;27869;51.442;7.540;2023-02-04T12:30:48;8.60;99.90
42201;DHT22;27869;51.442;7.540;2023-02-04T12:33:17;8.60;99.90
42201;DHT22;27869;51.442;7.540;2023-02-04T12:35:44;8.60;99.90
42201;DHT22;27869;51.442;7.540;2023-02-04T12:38:11;8.60;99.90
42201;DHT22;27869;51.442;7.540;2023-02-04T12:40:38;8.60;99.90
42201;DHT22;27869;51.442;7.540;2023-02-04T12:43:04;8.60;99.90
42201;DHT22;27869;51.442;7.540;2023-02-04T12:45:32;8.70;99.90
42201;DHT22;27869;51.442;7.540;2023-02-04T12:47:59;8.70;99.90
42201;DHT22;27869;51.442;7.540;2023-02-04T12:50:30;8.70;99.90
42201;DHT22;27869;51.442;7.540;2023-02-04T12:52:58;8.70;99.90
42201;DHT22;27869;51.442;7.540;2023-02-04T12:55:27;8.80;99.90
42201;DHT22;27869;51.442;7.540;2023-02-04T12:57:54;8.80;99.90
42201;DHT22;27869;51.442;7.540;2023-02-04T13:00:22;8.80;99.90
42201;DHT22;27869;51.442;7.540;2023-02-04T13:02:49;8.80;99.90
42201;DHT22;27869;51.442;7.540;2023-02-04T13:05:16;8.80;99.90
42201;DHT22;27869;51.442;7.540;2023-02-04T13:07:45;8.80;99.90
42201;DHT22;27869;51.442;7.540;2023-02-04T13:10:13;8.80;99.90
42201;DHT22;27869;51.442;7.540;2023-02-04T13:12:40;8.80;99.90
42201;DHT22;27869;51.442;7.540;2023-02-04T13:15:08;8.80;99.90
42201;DHT22;27869;51.442;7.540;2023-02-04T13:17:35;8.80;99.90
42201;DHT22;27869;51.442;7.540;2023-02-04T13:20:02;8.90;99.90
42201;DHT22;27869;51.442;7.540;2023-02-04T13:22:30;8.90;99.90
42201;DHT22;27869;51.442;7.540;2023-02-04T13:24:58;8.90;99.90
42201;DHT22;27869;51.442;7.540;2023-02-04T13:27:25;8.90;99.90
42201;DHT22;27869;51.442;7.540;2023-02-04T13:29:53;8.90;99.90
42201;DHT22;27869;51.442;7.540;2023-02-04T13:32:19;8.90;99.90
42201;DHT22;27869;51.442;7.540;2023-02-04T13:34:46;8.90;99.90
42201;DHT22;27869;51.442;7.540;2023-02-04T13:37:13;8.90;99.90
42201;DHT22;27869;51.442;7.540;2023-02-04T13:39:40;8.90;99.90
42201;DHT22;27869;51.442;7.540;2023-02-04T13:42:08;9.00;99.90
42201;DHT22;27869;51.442;7.540;2023-02-04T13:44:35;9.00;99.90
42201;DHT22;27869;51.442;7.540;2023-02-04T13:47:02;9.00;99.90
42201;DHT22;27869;51.442;7.540;2023-02-04T13:49:29;9.00;99.90
42201;DHT22;27869;51.442;7.540;2023-02-04T13:51:56;9.00;99.90
42201;DHT22;27869;51.442;7.540;2023-02-04T13:54:23;9.00;99.90
42201;DHT22;27869;51.442;7.540;2023-02-04T13:56:50;9.00;99.90
42201;DHT22;27869;51.442;7.540;2023-02-04T13:59:19;9.00;99.90
42201;DHT22;27869;51.442;7.540;2023-02-04T14:01:46;9.00;99.90
42201;DHT22;27869;51.442;7.540;2023-02-04T14:04:12;9.00;99.90
42201;DHT22;27869;51.442;7.540;2023-02-04T14:06:39;9.00;99.90
42201;DHT22;27869;51.442;7.540;2023-02-04T14:09:08;9.00;99.90
42201;DHT22;27869;51.442;7.540;2023-02-04T14:11:36;9.00;99.90
42201;DHT22;27869;51.442;7.540;2023-02-04T14:14:03;9.00;99.90
42201;DHT22;27869;51.442;7.540;2023-02-04T14:16:33;9.00;99.90
42201;DHT22;27869;51.442;7.540;2023-02-04T14:19:00;9.00;99.90
42201;DHT22;27869;51.442;7.540;2023-02-04T14:21:27;9.00;99.90
42201;DHT22;27869;51.442;7.540;2023-02-04T14:23:54;9.10;99.90
42201;DHT22;27869;51.442;7.540;2023-02-04T14:26:20;9.00;99.90
42201;DHT22;27869;51.442;7.540;2023-02-04T14:28:47;9.00;99.90
42201;DHT22;27869;51.442;7.540;2023-02-04T14:31:16;9.10;99.90
42201;DHT22;27869;51.442;7.540;2023-02-04T14:33:45;9.10;99.90
42201;DHT22;27869;51.442;7.540;2023-02-04T14:36:12;9.10;99.90
42201;DHT22;27869;51.442;7.540;2023-02-04T14:38:39;9.10;99.90
42201;DHT22;27869;51.442;7.540;2023-02-04T14:41:06;9.10;99.90
42201;DHT22;27869;51.442;7.540;2023-02-04T14:43:33;9.10;99.90
42201;DHT22;27869;51.442;7.540;2023-02-04T14:46:02;9.10;99.90
42201;DHT22;27869;51.442;7.540;2023-02-04T14:48:29;9.10;99.90
42201;DHT22;27869;51.442;7.540;2023-02-04T14:50:57;9.10;99.90
42201;DHT22;27869;51.442;7.540;2023-02-04T14:53:24;9.10;99.90
42201;DHT22;27869;51.442;7.540;2023-02-04T14:55:51;9.10;99.90
42201;DHT22;27869;51.442;7.540;2023-02-04T14:58:18;9.10;99.90
42201;DHT22;27869;51.442;7.540;2023-02-04T15:00:45;9.10;99.90
42201;DHT22;27869;51.442;7.540;2023-02-04T15:03:12;9.10;99.90
42201;DHT22;27869;51.442;7.540;2023-02-04T15:05:39;9.10;99.90
42201;DHT22;27869;51.442;7.540;2023-02-04T15:08:07;9.10;99.90
42201;DHT22;27869;51.442;7.540;2023-02-04T15:10:34;9.10;99.90
42201;DHT22;27869;51.442;7.540;2023-02-04T15:13:02;9.10;99.90
42201;DHT22;27869;51.442;7.540;2023-02-04T15:15:28;9.10;99.90
42201;DHT22;27869;51.442;7.540;2023-02-04T15:17:55;9.10;99.90
42201;DHT22;27869;51.442;7.540;2023-02-04T15:20:22;9.10;99.90
42201;DHT22;27869;51.442;7.540;2023-02-04T15:22:49;9.10;99.90
42201;DHT22;27869;51.442;7.540;2023-02-04T15:25:19;9.10;99.90
42201;DHT22;27869;51.442;7.540;2023-02-04T15:27:46;9.10;99.90
42201;DHT22;27869;51.442;7.540;2023-02-04T15:30:14;9.10;99.90
42201;DHT22;27869;51.442;7.540;2023-02-04T15:32:41;9.00;99.90
42201;DHT22;27869;51.442;7.540;2023-02-04T15:35:10;9.00;99.90
42201;DHT22;27869;51.442;7.540;2023-02-04T15:37:37;9.00;99.90
42201;DHT22;27869;51.442;7.540;2023-02-04T15:40:04;8.90;99.90
42201;DHT22;27869;51.442;7.540;2023-02-04T15:42:34;8.90;99.90
42201;DHT22;27869;51.442;7.540;2023-02-04T15:45:02;8.90;99.90
42201;DHT22;27869;51.442;7.540;2023-02-04T15:47:29;8.90;99.90
42201;DHT22;27869;51.442;7.540;2023-02-04T15:49:56;8.80;99.90